sensor_id;sensor_type;location;lat;lon;timestamp;temperature;humidity
67054;SHT31;53960;51.826;5.850;2023-04-25T00:00:56;7.99;83.87
67054;SHT31;53960;51.826;5.850;2023-04-25T00:03:22;8.00;83.76
67054;SHT31;53960;51.826;5.850;2023-04-25T00:05:50;7.99;83.68
67054;SHT31;53960;51.826;5.850;2023-04-25T00:08:16;7.99;83.57
67054;SHT31;53960;51.826;5.850;2023-04-25T00:10:42;7.95;83.84
67054;SHT31;53960;51.826;5.850;2023-04-25T00:13:07;7.93;83.74
67054;SHT31;53960;51.826;5.850;2023-04-25T00:15:33;7.90;83.80
67054;SHT31;53960;51.826;5.850;2023-04-25T00:17:59;7.88;83.86
67054;SHT31;53960;51.826;5.850;2023-04-25T00:20:25;7.89;83.67
67054;SHT31;53960;51.826;5.850;2023-04-25T00:22:50;7.83;83.84
67054;SHT31;53960;51.826;5.850;2023-04-25T00:25:17;7.89;83.80
67054;SHT31;53960;51.826;5.850;2023-04-25T00:27:43;7.76;83.84
67054;SHT31;53960;51.826;5.850;2023-04-25T00:30:08;7.72;84.15
67054;SHT31;53960;51.826;5.850;2023-04-25T00:32:34;7.69;84.33
67054;SHT31;53960;51.826;5.850;2023-04-25T00:34:59;7.74;84.22
67054;SHT31;53960;51.826;5.850;2023-04-25T00:37:25;7.78;84.20
67054;SHT31;53960;51.826;5.850;2023-04-25T00:39:51;7.76;84.16
67054;SHT31;53960;51.826;5.850;2023-04-25T00:42:16;7.79;84.03
67054;SHT31;53960;51.826;5.850;2023-04-25T00:44:42;7.78;83.91
67054;SHT31;53960;51.826;5.850;2023-04-25T00:47:08;7.79;83.97
67054;SHT31;53960;51.826;5.850;2023-04-25T00:49:33;7.76;84.41
67054;SHT31;53960;51.826;5.850;2023-04-25T00:51:59;7.85;84.12
67054;SHT31;53960;51.826;5.850;2023-04-25T00:54:25;7.85;84.19
67054;SHT31;53960;51.826;5.850;2023-04-25T00:56:50;7.82;84.11
67054;SHT31;53960;51.826;5.850;2023-04-25T00:59:16;7.81;84.34
67054;SHT31;53960;51.826;5.850;2023-04-25T01:01:43;7.89;84.17
67054;SHT31;53960;51.826;5.850;2023-04-25T01:04:08;7.88;84.14
67054;SHT31;53960;51.826;5.850;2023-04-25T01:06:34;7.89;83.92
67054;SHT31;53960;51.826;5.850;2023-04-25T01:08:59;7.86;84.03
67054;SHT31;53960;51.826;5.850;2023-04-25T01:11:25;7.89;83.98
67054;SHT31;53960;51.826;5.850;2023-04-25T01:13:50;7.86;83.92
67054;SHT31;53960;51.826;5.850;2023-04-25T01:16:16;7.83;84.02
67054;SHT31;53960;51.826;5.850;2023-04-25T01:18:41;7.90;83.82
67054;SHT31;53960;51.826;5.850;2023-04-25T01:21:09;7.89;83.61
67054;SHT31;53960;51.826;5.850;2023-04-25T01:23:35;7.88;83.56
67054;SHT31;53960;51.826;5.850;2023-04-25T01:26:01;7.89;83.50
67054;SHT31;53960;51.826;5.850;2023-04-25T01:28:27;7.85;83.32
67054;SHT31;53960;51.826;5.850;2023-04-25T01:30:53;7.78;83.46
67054;SHT31;53960;51.826;5.850;2023-04-25T01:33:20;7.72;83.59
67054;SHT31;53960;51.826;5.850;2023-04-25T01:35:46;7.75;83.67
67054;SHT31;53960;51.826;5.850;2023-04-25T01:38:13;7.79;83.46
67054;SHT31;53960;51.826;5.850;2023-04-25T01:40:40;7.78;83.35
67054;SHT31;53960;51.826;5.850;2023-04-25T01:43:06;7.74;83.32
67054;SHT31;53960;51.826;5.850;2023-04-25T01:45:33;7.69;83.42
67054;SHT31;53960;51.826;5.850;2023-04-25T01:47:58;7.71;83.49
67054;SHT31;53960;51.826;5.850;2023-04-25T01:50:24;7.76;83.18
67054;SHT31;53960;51.826;5.850;2023-04-25T01:52:50;7.69;83.46
67054;SHT31;53960;51.826;5.850;2023-04-25T01:55:16;7.68;83.55
67054;SHT31;53960;51.826;5.850;2023-04-25T01:57:41;7.69;83.72
67054;SHT31;53960;51.826;5.850;2023-04-25T02:00:07;7.71;83.56
67054;SHT31;53960;51.826;5.850;2023-04-25T02:02:34;7.66;83.50
67054;SHT31;53960;51.826;5.850;2023-04-25T02:04:59;7.62;83.74
67054;SHT31;53960;51.826;5.850;2023-04-25T02:07:26;7.66;83.83
67054;SHT31;53960;51.826;5.850;2023-04-25T02:09:51;7.66;83.41
67054;SHT31;53960;51.826;5.850;2023-04-25T02:12:16;7.65;83.36
67054;SHT31;53960;51.826;5.850;2023-04-25T02:14:42;7.57;83.33
67054;SHT31;53960;51.826;5.850;2023-04-25T02:17:07;7.64;82.94
67054;SHT31;53960;51.826;5.850;2023-04-25T02:19:32;7.59;83.00
67054;SHT31;53960;51.826;5.850;2023-04-25T02:21:58;7.48;83.17
67054;SHT31;53960;51.826;5.850;2023-04-25T02:24:23;7.45;83.14
67054;SHT31;53960;51.826;5.850;2023-04-25T02:26:48;7.41;83.21
67054;SHT31;53960;51.826;5.850;2023-04-25T02:29:15;7.41;83.28
67054;SHT31;53960;51.826;5.850;2023-04-25T02:31:40;7.45;82.84
67054;SHT31;53960;51.826;5.850;2023-04-25T02:34:05;7.30;82.96
67054;SHT31;53960;51.826;5.850;2023-04-25T02:36:31;7.30;82.64
67054;SHT31;53960;51.826;5.850;2023-04-25T02:39:00;7.24;82.87
67054;SHT31;53960;51.826;5.850;2023-04-25T02:41:25;7.26;82.95
67054;SHT31;53960;51.826;5.850;2023-04-25T02:43:50;7.21;82.85
67054;SHT31;53960;51.826;5.850;2023-04-25T02:46:16;7.18;82.98
67054;SHT31;53960;51.826;5.850;2023-04-25T02:48:41;7.10;83.11
67054;SHT31;53960;51.826;5.850;2023-04-25T02:51:06;7.10;83.03
67054;SHT31;53960;51.826;5.850;2023-04-25T02:53:31;7.08;83.02
67054;SHT31;53960;51.826;5.850;2023-04-25T02:55:57;7.07;83.05
67054;SHT31;53960;51.826;5.850;2023-04-25T02:58:24;7.01;83.06
67054;SHT31;53960;51.826;5.850;2023-04-25T03:00:49;7.01;83.01
67054;SHT31;53960;51.826;5.850;2023-04-25T03:03:14;7.01;82.94
67054;SHT31;53960;51.826;5.850;2023-04-25T03:05:43;7.04;82.60
67054;SHT31;53960;51.826;5.850;2023-04-25T03:08:08;6.92;82.86
67054;SHT31;53960;51.826;5.850;2023-04-25T03:10:33;6.89;83.27
67054;SHT31;53960;51.826;5.850;2023-04-25T03:12:59;6.93;83.04
67054;SHT31;53960;51.826;5.850;2023-04-25T03:15:24;6.86;83.05
67054;SHT31;53960;51.826;5.850;2023-04-25T03:17:49;6.86;82.99
67054;SHT31;53960;51.826;5.850;2023-04-25T03:20:15;6.80;83.01
67054;SHT31;53960;51.826;5.850;2023-04-25T03:22:41;6.82;82.92
67054;SHT31;53960;51.826;5.850;2023-04-25T03:25:06;6.77;82.94
67054;SHT31;53960;51.826;5.850;2023-04-25T03:27:32;6.83;82.85
67054;SHT31;53960;51.826;5.850;2023-04-25T03:29:57;6.82;82.81
67054;SHT31;53960;51.826;5.850;2023-04-25T03:32:22;6.82;82.64
67054;SHT31;53960;51.826;5.850;2023-04-25T03:34:48;6.82;82.61
67054;SHT31;53960;51.826;5.850;2023-04-25T03:37:13;6.71;82.92
67054;SHT31;53960;51.826;5.850;2023-04-25T03:39:38;6.69;83.06
67054;SHT31;53960;51.826;5.850;2023-04-25T03:42:04;6.68;83.00
67054;SHT31;53960;51.826;5.850;2023-04-25T03:44:29;6.71;82.81
67054;SHT31;53960;51.826;5.850;2023-04-25T03:46:54;6.66;82.94
67054;SHT31;53960;51.826;5.850;2023-04-25T03:49:20;6.69;83.03
67054;SHT31;53960;51.826;5.850;2023-04-25T03:51:45;6.73;82.61
67054;SHT31;53960;51.826;5.850;2023-04-25T03:54:11;6.69;83.01
67054;SHT31;53960;51.826;5.850;2023-04-25T03:56:36;6.72;83.08
67054;SHT31;53960;51.826;5.850;2023-04-25T03:59:01;6.73;83.01
67054;SHT31;53960;51.826;5.850;2023-04-25T04:01:26;6.76;82.82
67054;SHT31;53960;51.826;5.850;2023-04-25T04:03:52;6.76;82.97
67054;SHT31;53960;51.826;5.850;2023-04-25T04:06:17;6.76;82.92
67054;SHT31;53960;51.826;5.850;2023-04-25T04:08:43;6.77;82.95
67054;SHT31;53960;51.826;5.850;2023-04-25T04:11:09;6.79;82.68
67054;SHT31;53960;51.826;5.850;2023-04-25T04:13:35;6.85;82.71
67054;SHT31;53960;51.826;5.850;2023-04-25T04:16:00;6.89;82.35
67054;SHT31;53960;51.826;5.850;2023-04-25T04:18:25;6.86;82.27
67054;SHT31;53960;51.826;5.850;2023-04-25T04:20:51;6.85;82.40
67054;SHT31;53960;51.826;5.850;2023-04-25T04:23:16;6.86;82.38
67054;SHT31;53960;51.826;5.850;2023-04-25T04:25:41;6.77;82.35
67054;SHT31;53960;51.826;5.850;2023-04-25T04:28:07;6.71;82.44
67054;SHT31;53960;51.826;5.850;2023-04-25T04:30:32;6.75;82.34
67054;SHT31;53960;51.826;5.850;2023-04-25T04:33:01;6.69;82.64
67054;SHT31;53960;51.826;5.850;2023-04-25T04:35:26;6.65;82.72
67054;SHT31;53960;51.826;5.850;2023-04-25T04:37:52;6.72;82.36
67054;SHT31;53960;51.826;5.850;2023-04-25T04:40:18;6.73;82.33
67054;SHT31;53960;51.826;5.850;2023-04-25T04:42:44;6.77;82.32
67054;SHT31;53960;51.826;5.850;2023-04-25T04:45:12;6.79;82.28
67054;SHT31;53960;51.826;5.850;2023-04-25T04:47:38;6.75;82.36
67054;SHT31;53960;51.826;5.850;2023-04-25T04:50:07;6.80;81.97
67054;SHT31;53960;51.826;5.850;2023-04-25T04:52:35;6.77;82.01
67054;SHT31;53960;51.826;5.850;2023-04-25T04:55:01;6.83;81.99
67054;SHT31;53960;51.826;5.850;2023-04-25T04:57:27;6.85;82.03
67054;SHT31;53960;51.826;5.850;2023-04-25T04:59:53;6.86;81.82
67054;SHT31;53960;51.826;5.850;2023-04-25T05:02:18;6.89;81.77
67054;SHT31;53960;51.826;5.850;2023-04-25T05:04:43;6.99;81.39
67054;SHT31;53960;51.826;5.850;2023-04-25T05:07:09;7.03;81.35
67054;SHT31;53960;51.826;5.850;2023-04-25T05:09:35;7.10;81.26
67054;SHT31;53960;51.826;5.850;2023-04-25T05:12:00;7.14;80.96
67054;SHT31;53960;51.826;5.850;2023-04-25T05:14:26;7.10;81.28
67054;SHT31;53960;51.826;5.850;2023-04-25T05:16:51;7.14;81.43
67054;SHT31;53960;51.826;5.850;2023-04-25T05:19:17;7.14;81.41
67054;SHT31;53960;51.826;5.850;2023-04-25T05:21:42;7.20;81.03
67054;SHT31;53960;51.826;5.850;2023-04-25T05:24:08;7.18;80.92
67054;SHT31;53960;51.826;5.850;2023-04-25T05:26:33;7.13;81.52
67054;SHT31;53960;51.826;5.850;2023-04-25T05:28:59;7.20;81.10
67054;SHT31;53960;51.826;5.850;2023-04-25T05:31:25;7.16;80.63
67054;SHT31;53960;51.826;5.850;2023-04-25T05:33:50;7.26;80.73
67054;SHT31;53960;51.826;5.850;2023-04-25T05:36:15;7.27;80.52
67054;SHT31;53960;51.826;5.850;2023-04-25T05:38:40;7.35;79.43
67054;SHT31;53960;51.826;5.850;2023-04-25T05:41:06;7.35;79.85
67054;SHT31;53960;51.826;5.850;2023-04-25T05:43:32;7.51;80.09
67054;SHT31;53960;51.826;5.850;2023-04-25T05:45:58;7.50;79.71
67054;SHT31;53960;51.826;5.850;2023-04-25T05:48:23;7.54;79.55
67054;SHT31;53960;51.826;5.850;2023-04-25T05:50:48;7.55;79.60
67054;SHT31;53960;51.826;5.850;2023-04-25T05:53:14;7.54;79.06
67054;SHT31;53960;51.826;5.850;2023-04-25T05:55:39;7.68;78.18
67054;SHT31;53960;51.826;5.850;2023-04-25T05:58:05;7.62;78.43
67054;SHT31;53960;51.826;5.850;2023-04-25T06:00:30;7.65;78.25
67054;SHT31;53960;51.826;5.850;2023-04-25T06:02:55;7.68;78.57
67054;SHT31;53960;51.826;5.850;2023-04-25T06:05:21;7.71;77.63
67054;SHT31;53960;51.826;5.850;2023-04-25T06:07:46;7.74;77.84
67054;SHT31;53960;51.826;5.850;2023-04-25T06:10:11;7.82;76.94
67054;SHT31;53960;51.826;5.850;2023-04-25T06:12:37;7.81;77.21
67054;SHT31;53960;51.826;5.850;2023-04-25T06:15:04;7.79;77.00
67054;SHT31;53960;51.826;5.850;2023-04-25T06:17:29;7.75;77.22
67054;SHT31;53960;51.826;5.850;2023-04-25T06:19:55;7.75;77.39
67054;SHT31;53960;51.826;5.850;2023-04-25T06:22:20;7.62;77.58
67054;SHT31;53960;51.826;5.850;2023-04-25T06:24:46;7.71;76.58
67054;SHT31;53960;51.826;5.850;2023-04-25T06:27:11;7.71;76.57
67054;SHT31;53960;51.826;5.850;2023-04-25T06:29:36;7.62;76.67
67054;SHT31;53960;51.826;5.850;2023-04-25T06:32:02;7.59;77.57
67054;SHT31;53960;51.826;5.850;2023-04-25T06:34:27;7.58;77.55
67054;SHT31;53960;51.826;5.850;2023-04-25T06:36:52;7.64;76.98
67054;SHT31;53960;51.826;5.850;2023-04-25T06:39:18;7.68;76.21
67054;SHT31;53960;51.826;5.850;2023-04-25T06:41:45;7.71;76.59
67054;SHT31;53960;51.826;5.850;2023-04-25T06:44:10;7.81;76.50
67054;SHT31;53960;51.826;5.850;2023-04-25T06:46:35;7.76;75.73
67054;SHT31;53960;51.826;5.850;2023-04-25T06:49:01;7.83;75.63
67054;SHT31;53960;51.826;5.850;2023-04-25T06:51:26;7.88;75.45
67054;SHT31;53960;51.826;5.850;2023-04-25T06:53:54;7.93;74.94
67054;SHT31;53960;51.826;5.850;2023-04-25T06:56:19;7.99;75.06
67054;SHT31;53960;51.826;5.850;2023-04-25T06:58:46;8.07;75.15
67054;SHT31;53960;51.826;5.850;2023-04-25T07:01:11;8.06;74.76
67054;SHT31;53960;51.826;5.850;2023-04-25T07:03:36;8.03;74.95
67054;SHT31;53960;51.826;5.850;2023-04-25T07:06:03;8.05;75.12
67054;SHT31;53960;51.826;5.850;2023-04-25T07:08:29;8.13;75.60
67054;SHT31;53960;51.826;5.850;2023-04-25T07:10:54;8.16;74.89
67054;SHT31;53960;51.826;5.850;2023-04-25T07:13:20;8.22;74.75
67054;SHT31;53960;51.826;5.850;2023-04-25T07:15:45;8.30;74.93
67054;SHT31;53960;51.826;5.850;2023-04-25T07:18:13;8.37;74.74
67054;SHT31;53960;51.826;5.850;2023-04-25T07:20:38;8.46;74.38
67054;SHT31;53960;51.826;5.850;2023-04-25T07:23:03;8.58;74.17
67054;SHT31;53960;51.826;5.850;2023-04-25T07:25:29;8.43;74.42
67054;SHT31;53960;51.826;5.850;2023-04-25T07:27:55;8.50;74.32
67054;SHT31;53960;51.826;5.850;2023-04-25T07:30:21;8.43;74.20
67054;SHT31;53960;51.826;5.850;2023-04-25T07:32:46;8.47;74.23
67054;SHT31;53960;51.826;5.850;2023-04-25T07:35:12;8.51;73.22
67054;SHT31;53960;51.826;5.850;2023-04-25T07:37:37;8.44;73.55
67054;SHT31;53960;51.826;5.850;2023-04-25T07:40:03;8.44;74.50
67054;SHT31;53960;51.826;5.850;2023-04-25T07:42:29;8.41;73.90
67054;SHT31;53960;51.826;5.850;2023-04-25T07:44:54;8.51;74.19
67054;SHT31;53960;51.826;5.850;2023-04-25T07:47:20;8.57;73.94
67054;SHT31;53960;51.826;5.850;2023-04-25T07:49:46;8.65;73.67
67054;SHT31;53960;51.826;5.850;2023-04-25T07:52:12;8.69;73.42
67054;SHT31;53960;51.826;5.850;2023-04-25T07:54:37;8.81;73.08
67054;SHT31;53960;51.826;5.850;2023-04-25T07:57:03;8.79;70.95
67054;SHT31;53960;51.826;5.850;2023-04-25T07:59:28;8.79;71.08
67054;SHT31;53960;51.826;5.850;2023-04-25T08:01:53;8.91;71.35
67054;SHT31;53960;51.826;5.850;2023-04-25T08:04:19;8.99;69.25
67054;SHT31;53960;51.826;5.850;2023-04-25T08:06:44;9.04;69.81
67054;SHT31;53960;51.826;5.850;2023-04-25T08:09:10;9.11;68.23
67054;SHT31;53960;51.826;5.850;2023-04-25T08:11:36;9.25;68.23
67054;SHT31;53960;51.826;5.850;2023-04-25T08:14:01;9.33;67.32
67054;SHT31;53960;51.826;5.850;2023-04-25T08:16:27;9.27;67.63
67054;SHT31;53960;51.826;5.850;2023-04-25T08:18:53;9.16;67.67
67054;SHT31;53960;51.826;5.850;2023-04-25T08:21:18;9.05;67.89
67054;SHT31;53960;51.826;5.850;2023-04-25T08:23:44;9.01;68.39
67054;SHT31;53960;51.826;5.850;2023-04-25T08:26:09;8.88;68.59
67054;SHT31;53960;51.826;5.850;2023-04-25T08:28:34;8.96;69.05
67054;SHT31;53960;51.826;5.850;2023-04-25T08:31:00;9.16;68.26
67054;SHT31;53960;51.826;5.850;2023-04-25T08:33:25;9.27;65.62
67054;SHT31;53960;51.826;5.850;2023-04-25T08:35:53;9.40;64.41
67054;SHT31;53960;51.826;5.850;2023-04-25T08:38:18;9.39;64.71
67054;SHT31;53960;51.826;5.850;2023-04-25T08:40:49;9.19;65.67
67054;SHT31;53960;51.826;5.850;2023-04-25T08:43:18;9.20;65.46
67054;SHT31;53960;51.826;5.850;2023-04-25T08:45:44;9.27;64.58
67054;SHT31;53960;51.826;5.850;2023-04-25T08:48:15;9.40;64.44
67054;SHT31;53960;51.826;5.850;2023-04-25T08:50:52;9.46;63.98
67054;SHT31;53960;51.826;5.850;2023-04-25T08:53:31;9.61;64.18
67054;SHT31;53960;51.826;5.850;2023-04-25T08:55:59;9.78;63.20
67054;SHT31;53960;51.826;5.850;2023-04-25T08:58:27;9.90;62.36
67054;SHT31;53960;51.826;5.850;2023-04-25T09:00:53;9.88;61.50
67054;SHT31;53960;51.826;5.850;2023-04-25T09:03:18;9.88;61.47
67054;SHT31;53960;51.826;5.850;2023-04-25T09:05:44;9.90;62.53
67054;SHT31;53960;51.826;5.850;2023-04-25T09:08:09;9.91;62.88
67054;SHT31;53960;51.826;5.850;2023-04-25T09:10:36;9.80;63.95
67054;SHT31;53960;51.826;5.850;2023-04-25T09:13:11;9.70;64.36
67054;SHT31;53960;51.826;5.850;2023-04-25T09:15:53;9.71;65.19
67054;SHT31;53960;51.826;5.850;2023-04-25T09:18:29;9.74;66.09
67054;SHT31;53960;51.826;5.850;2023-04-25T09:23:39;9.88;66.38
67054;SHT31;53960;51.826;5.850;2023-04-25T09:26:07;10.05;65.17
67054;SHT31;53960;51.826;5.850;2023-04-25T09:28:32;10.15;65.44
67054;SHT31;53960;51.826;5.850;2023-04-25T09:31:00;10.19;63.38
67054;SHT31;53960;51.826;5.850;2023-04-25T09:33:30;10.12;63.41
67054;SHT31;53960;51.826;5.850;2023-04-25T09:36:05;10.16;62.81
67054;SHT31;53960;51.826;5.850;2023-04-25T09:38:32;10.25;60.99
67054;SHT31;53960;51.826;5.850;2023-04-25T09:40:58;10.45;60.58
67054;SHT31;53960;51.826;5.850;2023-04-25T09:43:25;10.31;60.01
67054;SHT31;53960;51.826;5.850;2023-04-25T09:45:54;10.04;60.89
67054;SHT31;53960;51.826;5.850;2023-04-25T09:48:24;9.95;62.24
67054;SHT31;53960;51.826;5.850;2023-04-25T09:51:12;9.94;62.28
67054;SHT31;53960;51.826;5.850;2023-04-25T09:53:40;9.90;60.81
67054;SHT31;53960;51.826;5.850;2023-04-25T09:56:07;9.94;60.16
67054;SHT31;53960;51.826;5.850;2023-04-25T09:58:34;10.05;59.72
67054;SHT31;53960;51.826;5.850;2023-04-25T10:01:02;10.18;59.16
67054;SHT31;53960;51.826;5.850;2023-04-25T10:03:32;10.04;58.06
67054;SHT31;53960;51.826;5.850;2023-04-25T10:06:02;9.81;56.91
67054;SHT31;53960;51.826;5.850;2023-04-25T10:08:37;9.73;58.00
67054;SHT31;53960;51.826;5.850;2023-04-25T10:11:04;9.56;56.12
67054;SHT31;53960;51.826;5.850;2023-04-25T10:13:30;9.46;56.79
67054;SHT31;53960;51.826;5.850;2023-04-25T10:16:01;9.56;56.59
67054;SHT31;53960;51.826;5.850;2023-04-25T10:18:27;9.66;57.55
67054;SHT31;53960;51.826;5.850;2023-04-25T10:20:58;9.81;57.28
67054;SHT31;53960;51.826;5.850;2023-04-25T10:23:24;9.98;57.13
67054;SHT31;53960;51.826;5.850;2023-04-25T10:25:51;10.16;57.72
67054;SHT31;53960;51.826;5.850;2023-04-25T10:28:17;10.38;55.51
67054;SHT31;53960;51.826;5.850;2023-04-25T10:30:59;10.70;54.45
67054;SHT31;53960;51.826;5.850;2023-04-25T10:36:14;10.87;50.22
67054;SHT31;53960;51.826;5.850;2023-04-25T10:38:41;11.14;51.43
67054;SHT31;53960;51.826;5.850;2023-04-25T10:41:08;11.11;51.59
67054;SHT31;53960;51.826;5.850;2023-04-25T10:48:53;10.79;54.95
67054;SHT31;53960;51.826;5.850;2023-04-25T10:56:29;10.49;58.70
67054;SHT31;53960;51.826;5.850;2023-04-25T10:59:15;10.57;57.96
67054;SHT31;53960;51.826;5.850;2023-04-25T11:01:48;10.56;56.28
67054;SHT31;53960;51.826;5.850;2023-04-25T11:04:24;10.42;56.69
67054;SHT31;53960;51.826;5.850;2023-04-25T11:07:05;10.59;57.50
67054;SHT31;53960;51.826;5.850;2023-04-25T11:09:33;10.66;58.54
67054;SHT31;53960;51.826;5.850;2023-04-25T11:11:59;10.70;57.78
67054;SHT31;53960;51.826;5.850;2023-04-25T11:14:25;10.66;57.26
67054;SHT31;53960;51.826;5.850;2023-04-25T11:16:57;10.66;57.55
67054;SHT31;53960;51.826;5.850;2023-04-25T11:19:23;10.62;57.41
67054;SHT31;53960;51.826;5.850;2023-04-25T11:21:49;10.56;57.77
67054;SHT31;53960;51.826;5.850;2023-04-25T11:24:17;10.66;57.63
67054;SHT31;53960;51.826;5.850;2023-04-25T11:26:46;10.57;57.88
67054;SHT31;53960;51.826;5.850;2023-04-25T11:29:12;10.64;57.52
67054;SHT31;53960;51.826;5.850;2023-04-25T11:31:37;10.79;57.30
67054;SHT31;53960;51.826;5.850;2023-04-25T11:34:03;10.84;56.43
67054;SHT31;53960;51.826;5.850;2023-04-25T11:36:28;10.94;55.93
67054;SHT31;53960;51.826;5.850;2023-04-25T11:38:54;10.89;55.58
67054;SHT31;53960;51.826;5.850;2023-04-25T11:41:20;11.00;60.02
67054;SHT31;53960;51.826;5.850;2023-04-25T11:43:47;11.06;60.02
67054;SHT31;53960;51.826;5.850;2023-04-25T11:46:13;11.06;56.02
67054;SHT31;53960;51.826;5.850;2023-04-25T11:48:40;11.01;55.11
67054;SHT31;53960;51.826;5.850;2023-04-25T11:51:06;10.99;55.99
67054;SHT31;53960;51.826;5.850;2023-04-25T11:53:31;11.10;55.26
67054;SHT31;53960;51.826;5.850;2023-04-25T11:55:56;11.07;54.36
67054;SHT31;53960;51.826;5.850;2023-04-25T11:58:22;11.18;52.39
67054;SHT31;53960;51.826;5.850;2023-04-25T12:00:47;11.15;54.11
67054;SHT31;53960;51.826;5.850;2023-04-25T12:03:13;11.35;53.99
67054;SHT31;53960;51.826;5.850;2023-04-25T12:05:38;11.44;54.42
67054;SHT31;53960;51.826;5.850;2023-04-25T12:08:14;11.54;53.28
67054;SHT31;53960;51.826;5.850;2023-04-25T12:10:42;11.38;54.15
67054;SHT31;53960;51.826;5.850;2023-04-25T12:13:20;11.62;53.98
67054;SHT31;53960;51.826;5.850;2023-04-25T12:15:46;11.69;53.01
67054;SHT31;53960;51.826;5.850;2023-04-25T12:18:11;11.55;51.19
67054;SHT31;53960;51.826;5.850;2023-04-25T12:20:37;11.62;51.13
67054;SHT31;53960;51.826;5.850;2023-04-25T12:23:05;11.62;52.99
67054;SHT31;53960;51.826;5.850;2023-04-25T12:25:40;11.65;53.89
67054;SHT31;53960;51.826;5.850;2023-04-25T12:28:24;11.41;53.74
67054;SHT31;53960;51.826;5.850;2023-04-25T12:33:17;11.21;57.34
67054;SHT31;53960;51.826;5.850;2023-04-25T12:35:42;11.07;60.34
67054;SHT31;53960;51.826;5.850;2023-04-25T12:38:08;10.81;60.88
67054;SHT31;53960;51.826;5.850;2023-04-25T12:40:33;10.80;61.99
67054;SHT31;53960;51.826;5.850;2023-04-25T12:42:59;11.11;61.68
67054;SHT31;53960;51.826;5.850;2023-04-25T12:45:24;11.00;60.02
67054;SHT31;53960;51.826;5.850;2023-04-25T12:47:49;10.96;59.36
67054;SHT31;53960;51.826;5.850;2023-04-25T12:50:14;10.96;59.86
67054;SHT31;53960;51.826;5.850;2023-04-25T12:52:40;11.24;59.92
67054;SHT31;53960;51.826;5.850;2023-04-25T12:55:05;11.13;58.27
67054;SHT31;53960;51.826;5.850;2023-04-25T12:57:31;11.28;58.70
67054;SHT31;53960;51.826;5.850;2023-04-25T12:59:56;11.32;58.11
67054;SHT31;53960;51.826;5.850;2023-04-25T13:02:21;11.36;58.88
67054;SHT31;53960;51.826;5.850;2023-04-25T13:04:47;11.36;55.71
67054;SHT31;53960;51.826;5.850;2023-04-25T13:07:12;11.61;53.57
67054;SHT31;53960;51.826;5.850;2023-04-25T13:09:37;11.59;51.63
67054;SHT31;53960;51.826;5.850;2023-04-25T13:12:03;11.57;50.80
67054;SHT31;53960;51.826;5.850;2023-04-25T13:14:29;11.63;51.51
67054;SHT31;53960;51.826;5.850;2023-04-25T13:16:54;11.65;51.12
67054;SHT31;53960;51.826;5.850;2023-04-25T13:19:20;11.66;51.06
67054;SHT31;53960;51.826;5.850;2023-04-25T13:21:45;11.78;51.12
67054;SHT31;53960;51.826;5.850;2023-04-25T13:24:10;11.68;49.45
67054;SHT31;53960;51.826;5.850;2023-04-25T13:26:35;11.68;49.72
67054;SHT31;53960;51.826;5.850;2023-04-25T13:29:01;11.75;50.22
67054;SHT31;53960;51.826;5.850;2023-04-25T13:31:28;11.81;50.24
67054;SHT31;53960;51.826;5.850;2023-04-25T13:33:54;11.82;51.13
67054;SHT31;53960;51.826;5.850;2023-04-25T13:36:19;12.03;52.62
67054;SHT31;53960;51.826;5.850;2023-04-25T13:38:44;11.76;52.29
67054;SHT31;53960;51.826;5.850;2023-04-25T13:41:12;11.58;57.53
67054;SHT31;53960;51.826;5.850;2023-04-25T13:43:42;11.44;58.86
67054;SHT31;53960;51.826;5.850;2023-04-25T13:46:08;11.36;55.36
67054;SHT31;53960;51.826;5.850;2023-04-25T13:48:33;11.57;55.80
67054;SHT31;53960;51.826;5.850;2023-04-25T13:50:58;11.78;54.45
67054;SHT31;53960;51.826;5.850;2023-04-25T13:53:24;11.79;53.33
67054;SHT31;53960;51.826;5.850;2023-04-25T13:55:49;11.82;52.00
67054;SHT31;53960;51.826;5.850;2023-04-25T13:58:15;11.97;52.34
67054;SHT31;53960;51.826;5.850;2023-04-25T14:00:40;12.06;51.34
67054;SHT31;53960;51.826;5.850;2023-04-25T14:03:08;12.00;50.80
67054;SHT31;53960;51.826;5.850;2023-04-25T14:05:34;11.93;50.05
67054;SHT31;53960;51.826;5.850;2023-04-25T14:08:04;11.76;49.08
67054;SHT31;53960;51.826;5.850;2023-04-25T14:10:29;11.63;49.75
67054;SHT31;53960;51.826;5.850;2023-04-25T14:12:55;11.52;49.16
67054;SHT31;53960;51.826;5.850;2023-04-25T14:15:20;11.65;49.53
67054;SHT31;53960;51.826;5.850;2023-04-25T14:17:45;11.79;49.34
67054;SHT31;53960;51.826;5.850;2023-04-25T14:20:13;11.85;50.05
67054;SHT31;53960;51.826;5.850;2023-04-25T14:22:39;11.93;49.45
67054;SHT31;53960;51.826;5.850;2023-04-25T14:25:08;12.10;48.31
67054;SHT31;53960;51.826;5.850;2023-04-25T14:27:34;12.23;47.07
67054;SHT31;53960;51.826;5.850;2023-04-25T14:29:59;12.17;46.85
67054;SHT31;53960;51.826;5.850;2023-04-25T14:32:24;12.10;46.98
67054;SHT31;53960;51.826;5.850;2023-04-25T14:34:50;12.21;49.69
67054;SHT31;53960;51.826;5.850;2023-04-25T14:37:15;12.41;49.54
67054;SHT31;53960;51.826;5.850;2023-04-25T14:39:41;12.24;50.79
67054;SHT31;53960;51.826;5.850;2023-04-25T14:42:06;11.99;52.73
67054;SHT31;53960;51.826;5.850;2023-04-25T14:44:31;11.38;53.58
67054;SHT31;53960;51.826;5.850;2023-04-25T14:46:57;11.21;55.16
67054;SHT31;53960;51.826;5.850;2023-04-25T14:49:22;11.14;56.86
67054;SHT31;53960;51.826;5.850;2023-04-25T14:51:47;11.04;57.36
67054;SHT31;53960;51.826;5.850;2023-04-25T14:54:13;11.04;57.58
67054;SHT31;53960;51.826;5.850;2023-04-25T14:56:38;11.03;56.61
67054;SHT31;53960;51.826;5.850;2023-04-25T14:59:03;10.99;56.89
67054;SHT31;53960;51.826;5.850;2023-04-25T15:01:29;10.96;57.42
67054;SHT31;53960;51.826;5.850;2023-04-25T15:03:54;10.90;56.68
67054;SHT31;53960;51.826;5.850;2023-04-25T15:06:19;11.18;55.90
67054;SHT31;53960;51.826;5.850;2023-04-25T15:08:45;11.23;55.21
67054;SHT31;53960;51.826;5.850;2023-04-25T15:11:10;11.15;56.18
67054;SHT31;53960;51.826;5.850;2023-04-25T15:13:36;11.10;55.90
67054;SHT31;53960;51.826;5.850;2023-04-25T15:16:01;10.90;54.87
67054;SHT31;53960;51.826;5.850;2023-04-25T15:18:27;10.87;55.21
67054;SHT31;53960;51.826;5.850;2023-04-25T15:20:52;10.89;55.74
67054;SHT31;53960;51.826;5.850;2023-04-25T15:23:19;10.90;56.12
67054;SHT31;53960;51.826;5.850;2023-04-25T15:25:45;10.87;56.89
67054;SHT31;53960;51.826;5.850;2023-04-25T15:28:10;10.81;55.70
67054;SHT31;53960;51.826;5.850;2023-04-25T15:30:36;10.73;55.07
67054;SHT31;53960;51.826;5.850;2023-04-25T15:33:02;11.03;54.52
67054;SHT31;53960;51.826;5.850;2023-04-25T15:35:27;11.38;54.33
67054;SHT31;53960;51.826;5.850;2023-04-25T15:37:53;11.71;54.95
67054;SHT31;53960;51.826;5.850;2023-04-25T15:40:18;11.90;53.86
67054;SHT31;53960;51.826;5.850;2023-04-25T15:42:53;11.96;52.71
67054;SHT31;53960;51.826;5.850;2023-04-25T15:45:20;11.66;50.71
67054;SHT31;53960;51.826;5.850;2023-04-25T15:47:46;11.28;48.77
67054;SHT31;53960;51.826;5.850;2023-04-25T15:50:13;11.23;50.00
67054;SHT31;53960;51.826;5.850;2023-04-25T15:52:41;11.06;50.49